Time;durP1;ratioP1;P1;durP2;ratioP2;P2;SDS_P1;SDS_P2;PMS_P1;PMS_P2;Temp;Humidity;BMP_temperature;BMP_pressure;BME280_temperature;BME280_humidity;BME280_pressure;Samples;Min_cycle;Max_cycle;Signal;HPM_P1;HPM_P2
2022/11/18 00:00:07;;;;;;;5.20;3.30;;;;;;;0.08;81.82;97621.33;24610;1331;3029368;-69
2022/11/18 00:02:36;;;;;;;6.60;3.90;;;;;;;0.76;80.81;97618.35;24621;1330;3053084;-69
2022/11/18 00:05:05;;;;;;;8.00;4.40;;;;;;;1.28;77.61;97629.70;24568;1324;3027159;-70
2022/11/18 00:07:34;;;;;;;6.80;4.80;;;;;;;1.24;76.77;97645.98;24582;1330;3052148;-70
2022/11/18 00:10:05;;;;;;;8.00;4.70;;;;;;;0.88;76.93;97658.29;24564;1331;3025811;-69
2022/11/18 00:15:22;;;;;;;8.70;4.90;;;;;;;0.62;78.11;97677.34;24548;1325;3071244;-69
2022/11/18 00:17:51;;;;;;;8.70;5.60;;;;;;;0.25;79.42;97690.61;24544;1333;3027004;-66
2022/11/18 00:20:20;;;;;;;8.00;5.10;;;;;;;0.15;79.69;97697.46;24543;1338;3048761;-68
2022/11/18 00:22:49;;;;;;;9.60;5.60;;;;;;;-0.03;79.66;97718.61;24592;1324;3028556;-66
2022/11/18 00:25:18;;;;;;;9.10;5.20;;;;;;;-0.23;81.26;97726.73;24546;1331;3052892;-67
2022/11/18 00:27:48;;;;;;;7.60;5.50;;;;;;;-0.30;81.56;97722.89;24583;1330;3028977;-67
2022/11/18 00:30:17;;;;;;;7.10;4.40;;;;;;;-0.35;81.56;97714.55;24540;1331;3026746;-65
2022/11/18 00:32:47;;;;;;;9.00;5.30;;;;;;;-0.26;81.20;97713.96;24539;1331;3052687;-67
2022/11/18 00:35:16;;;;;;;7.50;4.70;;;;;;;-0.29;81.82;97719.59;24608;1331;3026898;-65
2022/11/18 00:37:45;;;;;;;8.30;5.40;;;;;;;0.27;80.76;97718.77;24536;1330;3050797;-65
2022/11/18 00:40:13;;;;;;;9.30;4.70;;;;;;;0.72;77.92;97728.53;24617;1338;3026004;-65
2022/11/18 00:42:52;;;;;;;8.50;4.70;;;;;;;0.75;77.22;97735.09;24524;1331;3053425;-69
2022/11/18 00:45:21;;;;;;;8.40;5.20;;;;;;;0.56;77.46;97741.36;24568;1324;3051523;-67
2022/11/18 00:47:50;;;;;;;8.20;5.50;;;;;;;0.34;78.19;97749.60;24574;1331;3027460;-67
2022/11/18 00:50:19;;;;;;;8.80;5.20;;;;;;;0.35;78.64;97745.11;24547;1329;3053512;-66
2022/11/18 00:52:50;;;;;;;9.00;6.30;;;;;;;0.04;79.14;97741.36;24539;1337;3026156;-66
2022/11/18 00:55:20;;;;;;;9.30;5.60;;;;;;;-0.21;79.48;97733.17;24561;1336;3029429;-64
2022/11/18 00:57:50;;;;;;;11.70;6.60;;;;;;;-0.44;80.44;97721.28;24566;1333;3029602;-66
2022/11/18 01:00:19;;;;;;;7.90;5.70;;;;;;;-0.35;81.01;97727.06;24554;1329;3025852;-67
2022/11/18 01:02:49;;;;;;;8.50;5.80;;;;;;;-0.47;81.18;97744.96;24551;1324;3052198;-69
2022/11/18 01:05:18;;;;;;;9.50;5.90;;;;;;;-0.54;81.45;97741.82;24524;1340;3025904;-68
2022/11/18 01:07:47;;;;;;;10.60;6.10;;;;;;;-0.57;81.64;97740.58;24575;1323;3050244;-64
2022/11/18 01:10:16;;;;;;;7.20;3.70;;;;;;;-0.65;81.52;97746.26;24559;1323;3025766;-64
2022/11/18 01:15:42;;;;;;;9.40;5.00;;;;;;;0.46;77.60;97742.34;24540;1323;3052379;-64
2022/11/18 01:18:11;;;;;;;11.90;6.40;;;;;;;0.59;76.69;97743.11;24511;1336;3053726;-67
2022/11/18 01:20:41;;;;;;;12.00;5.90;;;;;;;0.44;77.06;97746.93;24553;1334;3029816;-70
2022/11/18 01:23:10;;;;;;;8.40;5.20;;;;;;;0.33;77.00;97742.60;24482;1330;3028393;-68
2022/11/18 01:25:40;;;;;;;10.00;6.00;;;;;;;0.20;76.98;97737.85;24513;1323;3026836;-67
2022/11/18 01:28:09;;;;;;;10.30;5.70;;;;;;;0.08;77.63;97740.30;24567;1333;3050528;-66
2022/11/18 01:30:39;;;;;;;11.40;6.40;;;;;;;0.04;77.32;97745.82;24562;1334;3026314;-68
2022/11/18 01:33:08;;;;;;;13.10;6.00;;;;;;;-0.17;78.13;97760.33;24553;1323;3027775;-65
2022/11/18 01:35:38;;;;;;;8.70;5.60;;;;;;;-0.13;77.50;97755.70;24576;1326;3027377;-65
2022/11/18 01:38:09;;;;;;;9.30;6.00;;;;;;;-0.27;78.59;97760.98;24578;1325;3068090;-68
2022/11/18 01:40:38;;;;;;;9.30;5.60;;;;;;;-0.29;78.67;97766.08;24572;1323;3028043;-68
2022/11/18 01:43:16;;;;;;;12.00;5.30;;;;;;;-0.32;78.90;97762.22;24591;1331;3026900;-70
2022/11/18 01:45:47;;;;;;;14.40;6.20;;;;;;;-0.25;78.80;97773.25;24550;1336;3052144;-68
2022/11/18 01:48:30;;;;;;;9.70;5.90;;;;;;;-0.44;78.81;97768.08;24641;1331;3027474;-65
2022/11/18 01:51:01;;;;;;;9.70;5.80;;;;;;;-0.55;79.66;97775.41;24558;1330;3052209;-68
2022/11/18 01:53:41;;;;;;;11.00;6.30;;;;;;;-0.67;79.53;97770.94;24554;1338;3028929;-68
2022/11/18 01:56:13;;;;;;;7.30;3.90;;;;;;;-0.64;79.79;97780.09;24545;1337;3050286;-66
2022/11/18 01:58:46;;;;;;;9.20;5.20;;;;;;;-0.04;78.60;97782.51;24632;1315;3027757;-70
2022/11/18 02:01:15;;;;;;;8.10;5.00;;;;;;;0.32;76.34;97781.41;24567;1325;3025831;-67
2022/11/18 02:03:45;;;;;;;7.90;5.40;;;;;;;0.37;75.67;97776.01;24544;1325;3028338;-69
2022/11/18 02:06:14;;;;;;;10.00;6.10;;;;;;;0.06;76.17;97785.17;24556;1333;3024747;-66
2022/11/18 02:08:43;;;;;;;9.00;5.80;;;;;;;0.03;76.61;97802.88;24553;1330;3051130;-67
2022/11/18 02:11:49;;;;;;;7.80;5.10;;;;;;;-0.22;76.59;97824.06;24581;1333;3027428;-65
2022/11/18 02:14:07;;;;;;;12.40;5.90;;;;;;;-0.43;77.44;97843.23;24559;1330;3070166;-66
2022/11/18 02:17:11;;;;;;;8.70;5.60;;;;;;;-0.60;77.86;97833.05;23876;1334;4274503;-67
2022/11/18 02:19:46;;;;;;;9.30;5.50;;;;;;;-0.73;78.17;97821.39;24499;1333;3057333;-69
2022/11/18 02:22:53;;;;;;;10.20;6.60;;;;;;;-0.70;78.54;97831.94;24568;1325;3026091;-66
2022/11/18 02:26:00;;;;;;;9.20;6.20;;;;;;;-0.87;78.77;97842.77;24547;1331;3053711;-67
2022/11/18 02:28:36;;;;;;;9.80;6.00;;;;;;;-0.96;79.34;97846.20;24538;1331;3051040;-66
2022/11/18 02:31:14;;;;;;;11.70;6.30;;;;;;;-0.94;79.62;97859.02;24508;1333;3054257;-64
2022/11/18 02:33:51;;;;;;;9.90;5.70;;;;;;;-1.01;79.93;97865.30;24529;1332;3048342;-66
2022/11/18 02:36:25;;;;;;;12.40;7.30;;;;;;;-1.13;79.78;97876.78;24494;1325;3069006;-67
2022/11/18 02:38:56;;;;;;;;;;;;;;;-0.99;80.36;97876.58;24496;1323;3050906;-65
2022/11/18 02:41:27;;;;;;;9.50;5.80;;;;;;;-0.21;78.19;97877.02;24508;1332;3027344;-66
2022/11/18 02:43:59;;;;;;;9.20;5.00;;;;;;;0.39;75.58;97877.57;24531;1332;3026263;-64
2022/11/18 02:46:32;;;;;;;8.80;5.30;;;;;;;0.66;74.26;97899.06;24535;1331;3025570;-64
2022/11/18 02:49:03;;;;;;;8.40;5.80;;;;;;;0.49;74.52;97918.29;24465;1335;3050783;-67
2022/11/18 02:51:32;;;;;;;12.70;7.30;;;;;;;0.10;75.39;97937.19;24560;1333;3028771;-67
2022/11/18 02:54:06;;;;;;;10.50;6.00;;;;;;;-0.20;76.49;97952.87;24446;1341;3027041;-67
2022/11/18 02:56:35;;;;;;;11.10;5.90;;;;;;;-0.49;76.86;97972.14;24492;1333;3068668;-64
2022/11/18 02:59:05;;;;;;;13.60;5.80;;;;;;;-0.43;77.35;97979.62;24463;1326;3025969;-65
2022/11/18 03:01:34;;;;;;;10.30;6.10;;;;;;;-0.58;77.28;97979.35;24416;1335;3048125;-65
2022/11/18 03:04:03;;;;;;;9.20;5.50;;;;;;;-0.59;77.60;97987.46;24478;1335;3027462;-65
2022/11/18 03:06:35;;;;;;;14.40;7.30;;;;;;;-0.79;77.59;97991.84;24546;1340;3028151;-66
2022/11/18 03:09:19;;;;;;;9.20;6.10;;;;;;;-0.93;78.79;97997.70;24533;1331;3028380;-67
2022/11/18 03:11:53;;;;;;;10.50;6.40;;;;;;;-1.00;78.25;97995.55;24600;1331;3054461;-69
2022/11/18 03:14:23;;;;;;;11.50;5.90;;;;;;;-1.03;79.02;97996.85;24531;1335;3052791;-66
2022/11/18 03:17:01;;;;;;;9.80;5.80;;;;;;;-0.96;79.12;97988.53;24539;1323;3027138;-67
2022/11/18 03:19:29;;;;;;;9.30;5.10;;;;;;;-1.01;79.06;97983.92;24593;1329;3052333;-67
2022/11/18 03:22:39;;;;;;;8.30;5.80;;;;;;;-1.01;78.94;97992.02;24535;1316;3029856;-67
2022/11/18 03:25:12;;;;;;;9.80;6.20;;;;;;;-0.94;78.87;97999.30;24472;1333;3052015;-71
2022/11/18 03:27:45;;;;;;;8.40;4.10;;;;;;;-0.98;79.01;98016.98;24586;1333;3053588;-69
2022/11/18 03:30:17;;;;;;;7.60;4.70;;;;;;;-0.33;77.81;98012.59;24568;1323;3025901;-66
2022/11/18 03:33:10;;;;;;;8.10;4.60;;;;;;;0.38;75.65;98008.84;24562;1323;3027674;-68
2022/11/18 03:35:41;;;;;;;8.50;5.00;;;;;;;0.35;74.14;98022.06;24547;1334;3049755;-67
2022/11/18 03:38:19;;;;;;;11.80;6.10;;;;;;;0.22;74.83;98021.41;24566;1327;3027397;-66
2022/11/18 03:40:51;;;;;;;9.40;5.90;;;;;;;0.00;75.17;98022.65;24566;1323;3051746;-66
2022/11/18 03:43:22;;;;;;;8.00;5.10;;;;;;;-0.35;75.74;98028.16;24627;1333;3026901;-67
2022/11/18 03:46:01;;;;;;;10.20;5.50;;;;;;;-0.37;76.26;98024.83;24576;1333;3052167;-65
2022/11/18 03:48:33;;;;;;;10.20;5.40;;;;;;;-0.69;77.10;98026.55;24577;1332;3053469;-69
2022/11/18 03:51:06;;;;;;;10.90;6.10;;;;;;;-1.01;78.16;98020.36;24570;1333;3025978;-69
2022/11/18 03:53:39;;;;;;;9.50;5.70;;;;;;;-1.21;78.78;98018.48;24542;1332;3069524;-70
2022/11/18 03:56:10;;;;;;;8.70;5.50;;;;;;;-1.19;79.02;98012.58;24616;1332;3026189;-67
2022/11/18 03:58:47;;;;;;;11.30;5.50;;;;;;;-1.14;79.38;98013.79;24540;1340;3027367;-67
2022/11/18 04:01:18;;;;;;;9.40;5.10;;;;;;;-1.05;79.02;98024.29;24524;1332;3052456;-69
2022/11/18 04:03:47;;;;;;;8.30;5.10;;;;;;;-1.03;79.05;98038.14;24561;1333;3027695;-75
2022/11/18 04:06:38;;;;;;;13.20;5.90;;;;;;;-0.96;79.21;98045.25;24501;1333;3030028;-69
2022/11/18 04:09:13;;;;;;;10.10;5.40;;;;;;;-1.02;78.59;98050.64;24545;1313;3052918;-67
2022/11/18 04:12:04;;;;;;;10.50;5.80;;;;;;;-1.10;78.63;98044.20;24512;1331;3053466;-67
2022/11/18 04:14:37;;;;;;;11.60;6.40;;;;;;;-1.18;78.87;98058.23;24541;1326;3050924;-70
2022/11/18 04:17:11;;;;;;;8.00;4.40;;;;;;;-0.93;78.40;98057.01;24590;1325;3025744;-68
2022/11/18 04:19:40;;;;;;;11.00;5.30;;;;;;;-0.36;77.20;98056.25;24567;1332;3049729;-69
2022/11/18 04:22:09;;;;;;;6.80;3.80;;;;;;;0.39;74.20;98065.64;24552;1333;3026864;-70
2022/11/18 04:24:40;;;;;;;12.60;4.70;;;;;;;0.63;72.63;98071.74;24571;1340;3028481;-69
2022/11/18 04:27:09;;;;;;;6.80;4.40;;;;;;;0.73;72.21;98078.21;24537;1323;3026643;-71
2022/11/18 04:29:38;;;;;;;8.70;4.80;;;;;;;0.36;72.52;98101.61;24572;1333;3067878;-73
2022/11/18 04:32:07;;;;;;;8.30;5.40;;;;;;;0.04;73.27;98121.15;24580;1324;3026714;-73
2022/11/18 04:34:37;;;;;;;9.10;5.10;;;;;;;-0.27;73.47;98125.94;24587;1333;3049732;-67
2022/11/18 04:37:06;;;;;;;10.90;5.50;;;;;;;-0.73;74.36;98137.28;24553;1333;3025981;-68
2022/11/18 04:39:35;;;;;;;10.40;5.90;;;;;;;-1.02;75.48;98153.58;24570;1336;3053092;-67
2022/11/18 04:42:04;;;;;;;11.40;6.30;;;;;;;-1.19;75.84;98162.75;24537;1333;3026286;-69
2022/11/18 04:44:35;;;;;;;10.40;5.90;;;;;;;-1.18;76.70;98172.02;24559;1325;3051033;-68
2022/11/18 04:47:05;;;;;;;9.10;5.50;;;;;;;-1.16;77.00;98189.30;24654;1330;3026323;-70
2022/11/18 04:49:34;;;;;;;8.60;5.00;;;;;;;-1.08;77.36;98199.52;24614;1340;3054153;-66
2022/11/18 04:52:03;;;;;;;10.00;5.70;;;;;;;-1.28;78.30;98191.25;24583;1323;3029137;-68
2022/11/18 04:54:32;;;;;;;11.60;5.90;;;;;;;-1.31;78.27;98190.31;24599;1325;3026964;-64
2022/11/18 04:57:01;;;;;;;10.40;6.30;;;;;;;-1.33;78.30;98207.36;24638;1333;3026209;-66
2022/11/18 04:59:31;;;;;;;11.30;5.70;;;;;;;-1.46;78.76;98202.80;24562;1315;3053826;-68
2022/11/18 05:02:00;;;;;;;11.10;5.80;;;;;;;-1.55;78.70;98196.07;24601;1334;3028681;-69
2022/11/18 05:04:30;;;;;;;9.20;5.50;;;;;;;-1.61;79.31;98185.26;24518;1326;3052365;-70
2022/11/18 05:07:00;;;;;;;8.20;4.00;;;;;;;-1.45;79.48;98169.63;24570;1333;3027264;-66
2022/11/18 05:26:06;;;;;;;8.70;5.50;;;;;;;-0.73;75.65;98246.46;24518;1326;3058114;-68
2022/11/18 05:28:34;;;;;;;10.20;5.60;;;;;;;-0.78;75.93;98242.68;24496;1340;3051646;-68
2022/11/18 05:31:07;;;;;;;9.50;5.30;;;;;;;-0.83;76.55;98241.81;24604;1324;3028167;-70
2022/11/18 05:33:36;;;;;;;13.40;5.90;;;;;;;-0.84;76.50;98261.63;24536;1348;3059720;-71
2022/11/18 05:36:07;;;;;;;8.50;5.30;;;;;;;-0.72;76.70;98276.02;24576;1333;3028670;-70
2022/11/18 05:38:36;;;;;;;12.30;6.30;;;;;;;-0.64;76.76;98283.49;24546;1335;3049664;-67
2022/11/18 05:41:05;;;;;;;9.60;5.50;;;;;;;-0.60;76.37;98288.17;24534;1323;3028375;-73
2022/11/18 05:43:34;;;;;;;10.50;5.70;;;;;;;-0.68;76.24;98296.69;24536;1325;3069561;-70
2022/11/18 05:46:04;;;;;;;12.90;6.80;;;;;;;-0.70;76.42;98308.63;24520;1339;3029544;-68
2022/11/18 05:48:33;;;;;;;11.70;6.30;;;;;;;-0.82;77.04;98320.36;24528;1331;3026619;-70
2022/11/18 05:51:02;;;;;;;10.60;5.80;;;;;;;-0.89;77.08;98319.20;24613;1324;3068765;-68
2022/11/18 05:53:31;;;;;;;12.50;5.70;;;;;;;-1.07;77.53;98339.54;24566;1330;3027427;-68
2022/11/18 05:56:06;;;;;;;14.80;7.00;;;;;;;-1.10;78.03;98336.73;24586;1332;3048742;-67
2022/11/18 05:58:35;;;;;;;9.80;5.60;;;;;;;-1.25;78.53;98336.14;24566;1331;3068883;-67
2022/11/18 06:01:04;;;;;;;7.20;3.80;;;;;;;-1.16;78.84;98341.58;24557;1324;3027045;-69
2022/11/18 06:03:35;;;;;;;8.80;5.70;;;;;;;-0.53;77.66;98342.09;24604;1333;3049228;-70
2022/11/18 06:06:06;;;;;;;7.60;4.20;;;;;;;0.11;74.31;98348.86;24501;1326;3028158;-69
2022/11/18 06:08:38;;;;;;;11.70;5.20;;;;;;;0.43;73.67;98357.52;24573;1337;3027555;-68
2022/11/18 06:11:14;;;;;;;10.20;5.00;;;;;;;0.48;72.98;98360.25;24499;1339;3057439;-68
2022/11/18 06:13:49;;;;;;;10.60;6.30;;;;;;;0.32;73.09;98361.36;24584;1317;3027315;-69
2022/11/18 06:16:22;;;;;;;9.00;5.10;;;;;;;0.28;73.58;98364.61;24589;1333;3054615;-70
2022/11/18 06:18:51;;;;;;;8.10;5.00;;;;;;;0.13;73.20;98360.84;24584;1323;3027670;-65
2022/11/18 06:21:20;;;;;;;10.40;5.80;;;;;;;-0.04;73.72;98368.34;24552;1325;3026676;-63
2022/11/18 06:23:50;;;;;;;11.50;6.20;;;;;;;-0.00;73.79;98375.42;24472;1331;3054510;-64
2022/11/18 06:26:19;;;;;;;10.70;6.60;;;;;;;-0.03;73.66;98380.35;24558;1330;3026039;-64
2022/11/18 06:28:48;;;;;;;12.40;6.90;;;;;;;-0.09;74.29;98380.89;24589;1331;3052288;-64
2022/11/18 06:31:17;;;;;;;10.80;6.80;;;;;;;-0.05;74.36;98387.48;24531;1323;3026861;-64
2022/11/18 06:33:47;;;;;;;10.10;5.70;;;;;;;-0.00;73.97;98388.69;24589;1333;3055627;-64
2022/11/18 06:36:17;;;;;;;11.40;5.80;;;;;;;0.02;74.26;98392.40;24501;1332;3027867;-65
2022/11/18 06:38:46;;;;;;;11.80;6.30;;;;;;;0.08;74.42;98399.23;24530;1336;3028684;-62
2022/11/18 06:41:15;;;;;;;10.90;6.20;;;;;;;0.22;74.43;98402.89;24601;1324;3029494;-68
2022/11/18 06:43:45;;;;;;;11.30;6.20;;;;;;;0.33;73.86;98403.54;24505;1332;3051092;-66
2022/11/18 06:49:02;;;;;;;11.40;6.30;;;;;;;0.10;73.49;98397.96;24546;1330;3057938;-66
2022/11/18 06:51:31;;;;;;;11.40;6.60;;;;;;;0.21;74.38;98398.61;24623;1323;3029480;-65
2022/11/18 06:54:10;;;;;;;9.50;5.50;;;;;;;0.25;73.71;98396.58;24601;1324;3050477;-64
2022/11/18 06:56:39;;;;;;;12.80;6.60;;;;;;;0.33;73.65;98398.02;24545;1323;3028382;-70
2022/11/18 06:59:08;;;;;;;10.30;5.60;;;;;;;0.39;73.18;98400.73;24559;1333;3068229;-67
2022/11/18 07:01:38;;;;;;;11.60;6.50;;;;;;;0.30;73.54;98410.02;24642;1325;3026594;-69
2022/11/18 07:04:08;;;;;;;15.20;8.30;;;;;;;0.16;73.96;98409.66;24585;1329;3026476;-68
2022/11/18 07:06:41;;;;;;;12.60;6.70;;;;;;;0.04;74.51;98408.19;24572;1331;3026127;-65
2022/11/18 07:09:10;;;;;;;10.70;6.50;;;;;;;0.16;74.72;98406.20;24628;1331;3028466;-69
2022/11/18 07:11:40;;;;;;;11.40;6.50;;;;;;;0.19;74.45;98404.19;24545;1332;3026384;-70
2022/11/18 07:14:10;;;;;;;12.90;6.80;;;;;;;0.21;74.30;98408.77;24579;1339;3051291;-64
2022/11/18 07:16:39;;;;;;;12.00;7.10;;;;;;;0.35;74.15;98409.32;24655;1334;3025634;-65
2022/11/18 07:19:10;;;;;;;12.00;6.90;;;;;;;0.31;73.68;98406.38;24518;1325;3028494;-65
2022/11/18 07:21:42;;;;;;;11.10;7.00;;;;;;;0.16;73.77;98406.22;24556;1334;3026431;-66
2022/11/18 07:24:12;;;;;;;12.80;6.90;;;;;;;0.23;73.74;98405.97;24525;1340;3028891;-65
2022/11/18 07:26:43;;;;;;;13.20;7.50;;;;;;;0.40;73.58;98411.75;24527;1323;3026321;-65
2022/11/18 07:29:12;;;;;;;16.30;7.90;;;;;;;0.55;73.30;98411.72;24632;1332;3028230;-65
2022/11/18 07:31:43;;;;;;;13.70;7.10;;;;;;;0.61;72.68;98414.73;24531;1331;3027631;-64
2022/11/18 07:34:12;;;;;;;12.00;7.10;;;;;;;0.69;71.86;98419.96;24475;1334;3028720;-64
2022/11/18 07:36:43;;;;;;;14.60;8.10;;;;;;;0.81;71.51;98419.88;24545;1331;3050290;-66
2022/11/18 07:39:12;;;;;;;13.10;8.00;;;;;;;0.85;71.33;98430.27;24534;1333;3026207;-63
2022/11/18 07:41:43;;;;;;;13.20;8.00;;;;;;;0.91;70.33;98435.53;24557;1332;3026647;-63
2022/11/18 07:44:13;;;;;;;12.60;7.30;;;;;;;0.87;69.57;98438.60;24489;1338;3028898;-64
2022/11/18 07:46:43;;;;;;;12.30;7.30;;;;;;;0.93;69.71;98440.46;24534;1324;3028100;-65
2022/11/18 07:49:12;;;;;;;14.10;7.40;;;;;;;0.86;69.71;98437.44;24572;1326;3029057;-66
2022/11/18 07:51:40;;;;;;;11.20;7.30;;;;;;;1.01;69.38;98448.08;24651;1331;3052382;-66
2022/11/18 07:54:11;;;;;;;10.90;7.10;;;;;;;1.11;69.41;98449.61;24563;1326;3027939;-64
2022/11/18 07:56:40;;;;;;;11.90;7.80;;;;;;;1.24;69.09;98448.41;24520;1331;3052257;-63
2022/11/18 07:59:09;;;;;;;13.70;7.60;;;;;;;1.29;68.73;98454.77;24510;1333;3028261;-62
2022/11/18 08:01:38;;;;;;;12.50;7.70;;;;;;;1.34;68.08;98465.98;24508;1330;3056868;-63
2022/11/18 08:04:09;;;;;;;12.00;7.50;;;;;;;1.39;66.99;98480.10;24484;1332;3028854;-66
2022/11/18 08:06:41;;;;;;;12.20;7.80;;;;;;;1.42;67.51;98498.13;24557;1333;3050671;-66
2022/11/18 08:09:10;;;;;;;11.90;7.10;;;;;;;1.39;66.72;98505.98;24488;1331;3026176;-66
2022/11/18 08:11:40;;;;;;;14.10;7.90;;;;;;;1.30;67.59;98510.98;24556;1331;3071054;-64
2022/11/18 08:14:09;;;;;;;12.40;7.50;;;;;;;1.26;67.95;98517.02;24503;1331;3026857;-66
2022/11/18 08:16:39;;;;;;;12.90;7.60;;;;;;;1.33;67.68;98516.91;24521;1337;3049154;-65
2022/11/18 08:19:08;;;;;;;12.50;7.30;;;;;;;1.47;67.30;98520.19;24607;1331;3028272;-65
2022/11/18 08:21:38;;;;;;;14.70;7.90;;;;;;;1.40;67.44;98531.15;24542;1325;3054252;-64
2022/11/18 08:24:08;;;;;;;11.70;6.60;;;;;;;1.37;67.82;98526.09;24553;1332;3027848;-71
2022/11/18 08:26:38;;;;;;;12.30;7.40;;;;;;;1.42;68.06;98525.23;24559;1327;3053416;-65
2022/11/18 08:29:07;;;;;;;15.40;8.40;;;;;;;1.40;68.27;98527.02;24528;1338;3028780;-69
2022/11/18 08:31:36;;;;;;;13.00;7.70;;;;;;;1.28;69.11;98541.59;24588;1333;3024834;-69
2022/11/18 08:34:06;;;;;;;16.80;8.30;;;;;;;1.32;69.07;98547.14;24476;1324;3052740;-65
2022/11/18 08:36:36;;;;;;;15.00;8.30;;;;;;;1.40;69.91;98540.66;24500;1323;3026919;-64
2022/11/18 08:39:07;;;;;;;14.20;8.10;;;;;;;1.50;68.68;98536.28;24652;1317;3026838;-68
2022/11/18 08:41:38;;;;;;;13.80;8.00;;;;;;;1.56;68.03;98530.37;24529;1323;3029036;-68
2022/11/18 08:44:10;;;;;;;13.40;7.90;;;;;;;1.63;67.89;98529.55;24613;1329;3026369;-70
2022/11/18 08:46:40;;;;;;;14.60;8.60;;;;;;;1.67;68.14;98541.52;24571;1333;3026475;-68
2022/11/18 08:49:09;;;;;;;14.60;8.30;;;;;;;1.67;67.46;98546.01;24573;1325;3031181;-67
2022/11/18 08:51:38;;;;;;;15.20;8.00;;;;;;;1.76;67.35;98560.66;24612;1323;3029123;-75
2022/11/18 08:54:07;;;;;;;13.60;8.30;;;;;;;1.68;67.42;98562.01;24537;1333;3058097;-67
2022/11/18 08:56:36;;;;;;;16.10;8.80;;;;;;;1.57;67.97;98559.84;24548;1334;3029337;-74
2022/11/18 08:59:06;;;;;;;19.50;9.60;;;;;;;1.57;68.20;98565.00;24591;1327;3026926;-67
2022/11/18 09:01:37;;;;;;;18.20;10.70;;;;;;;1.58;67.95;98565.84;24526;1333;3057778;-71
2022/11/18 09:04:06;;;;;;;17.60;9.80;;;;;;;1.51;68.16;98575.96;24612;1330;3025589;-70
2022/11/18 09:06:37;;;;;;;20.20;12.00;;;;;;;1.52;68.49;98573.85;24563;1332;3048847;-72
2022/11/18 09:09:07;;;;;;;25.20;12.70;;;;;;;1.23;69.50;98574.92;24610;1333;3027414;-70
2022/11/18 09:11:38;;;;;;;21.80;12.00;;;;;;;1.27;69.68;98586.67;24611;1331;3026720;-69
2022/11/18 09:14:09;;;;;;;18.80;11.50;;;;;;;1.54;69.18;98588.44;24531;1333;3029421;-69
2022/11/18 09:16:39;;;;;;;21.40;11.30;;;;;;;1.66;68.82;98580.55;24553;1335;3028268;-69
2022/11/18 09:19:09;;;;;;;22.70;12.50;;;;;;;1.62;68.78;98582.27;24669;1323;3027997;-69
2022/11/18 09:21:38;;;;;;;25.30;12.50;;;;;;;1.65;68.40;98594.40;24672;1329;3029534;-69
2022/11/18 09:24:07;;;;;;;21.60;12.60;;;;;;;1.64;69.21;98601.67;24548;1331;3028191;-67
2022/11/18 09:26:36;;;;;;;22.60;11.50;;;;;;;1.68;69.62;98609.30;24570;1338;3052085;-77
2022/11/18 09:29:07;;;;;;;18.40;10.80;;;;;;;1.78;69.04;98605.99;24560;1340;3027475;-64
2022/11/18 09:31:36;;;;;;;16.50;10.50;;;;;;;1.91;68.14;98599.31;24543;1315;3027324;-69
2022/11/18 09:34:05;;;;;;;18.60;10.60;;;;;;;1.71;68.97;98606.61;24572;1324;3029821;-65
2022/11/18 09:36:34;;;;;;;19.00;11.20;;;;;;;1.48;69.60;98615.23;24579;1333;3050437;-67
2022/11/18 09:39:03;;;;;;;16.00;9.10;;;;;;;1.59;69.49;98618.98;24555;1329;3026551;-66
2022/11/18 09:41:59;;;;;;;14.70;7.90;;;;;;;1.60;69.66;98620.65;24487;1338;3053456;-64
2022/11/18 09:44:54;;;;;;;10.90;7.10;;;;;;;1.59;68.72;98625.37;24528;1332;3050931;-65
2022/11/18 09:47:33;;;;;;;11.30;7.60;;;;;;;1.47;68.87;98623.73;24511;1330;3071176;-65
2022/11/18 09:50:21;;;;;;;14.60;7.60;;;;;;;1.46;69.00;98626.00;24577;1340;3050234;-64
2022/11/18 09:52:53;;;;;;;16.20;7.20;;;;;;;1.24;70.07;98635.80;25418;1331;3056654;-65
2022/11/18 09:55:22;;;;;;;10.90;7.50;;;;;;;1.31;70.23;98637.95;25254;1329;3026114;-66
2022/11/18 09:57:56;;;;;;;13.30;7.70;;;;;;;1.48;69.79;98641.45;24613;1334;3027654;-67
2022/11/18 10:00:29;;;;;;;12.70;7.90;;;;;;;1.34;69.90;98648.21;25399;1331;3052930;-69
2022/11/18 10:03:05;;;;;;;13.80;8.10;;;;;;;1.20;70.64;98657.81;25089;1326;3025824;-69
2022/11/18 10:05:54;;;;;;;18.20;8.40;;;;;;;1.21;71.04;98657.95;24628;1324;3049330;-69
2022/11/18 10:08:57;;;;;;;17.50;10.00;;;;;;;1.22;71.04;98669.65;24534;1331;3070657;-73
2022/11/18 10:11:38;;;;;;;14.60;8.50;;;;;;;1.08;71.33;98675.33;24584;1333;3051666;-67
2022/11/18 10:14:34;;;;;;;12.20;7.80;;;;;;;1.23;71.23;98675.84;24530;1340;3058087;-69
2022/11/18 10:17:18;;;;;;;;;;;;;;;1.34;70.63;98668.73;24568;1325;3053226;-70
2022/11/18 10:20:01;;;;;;;14.00;7.90;;;;;;;1.32;70.70;98670.89;24589;1331;3054426;-67
2022/11/18 10:22:42;;;;;;;15.30;8.60;;;;;;;1.36;70.64;98672.45;24626;1331;3052355;-69
2022/11/18 10:25:14;;;;;;;16.60;9.40;;;;;;;1.45;70.38;98672.30;24590;1331;3053032;-68
2022/11/18 10:27:45;;;;;;;14.30;8.70;;;;;;;1.41;70.75;98683.66;24544;1340;3026437;-67
2022/11/18 10:30:16;;;;;;;17.70;9.50;;;;;;;1.43;70.77;98686.00;24641;1331;3026040;-70
2022/11/18 10:33:18;;;;;;;21.90;10.50;;;;;;;1.44;70.81;98694.77;24548;1324;3027514;-68
2022/11/18 10:35:48;;;;;;;17.60;10.20;;;;;;;1.44;70.58;98693.04;24611;1317;3055350;-69
2022/11/18 10:38:17;;;;;;;21.80;10.70;;;;;;;1.45;70.19;98700.27;24595;1333;3027534;-68
2022/11/18 10:40:49;;;;;;;17.80;9.80;;;;;;;1.38;70.15;98704.31;24566;1323;3050087;-66
2022/11/18 10:43:51;;;;;;;15.70;9.10;;;;;;;1.44;70.73;98712.91;24597;1330;3026116;-66
2022/11/18 10:46:26;;;;;;;18.90;10.00;;;;;;;1.54;70.09;98708.58;24522;1323;3052695;-65
2022/11/18 10:49:07;;;;;;;24.00;12.80;;;;;;;1.55;70.68;98712.34;24529;1326;3053346;-68
2022/11/18 10:51:39;;;;;;;16.40;9.80;;;;;;;1.48;70.49;98708.59;24571;1332;3051491;-68
2022/11/18 10:54:11;;;;;;;15.20;8.30;;;;;;;1.48;70.24;98702.73;24571;1326;3028540;-65
2022/11/18 10:56:44;;;;;;;14.60;8.50;;;;;;;1.31;70.77;98694.89;24582;1329;3027804;-70
2022/11/18 10:59:43;;;;;;;13.20;7.80;;;;;;;1.24;71.44;98691.84;24583;1334;3027549;-66
2022/11/18 11:02:17;;;;;;;10.60;6.50;;;;;;;1.42;70.80;98692.06;24587;1329;3050760;-63
2022/11/18 11:04:47;;;;;;;11.30;7.10;;;;;;;1.36;70.66;98705.42;24462;1326;3057456;-65
2022/11/18 11:07:32;;;;;;;13.30;7.60;;;;;;;1.40;70.90;98713.56;24526;1325;3025286;-65
2022/11/18 11:10:07;;;;;;;8.70;5.70;;;;;;;1.36;70.49;98726.29;24469;1333;3055595;-67
2022/11/18 11:12:45;;;;;;;10.60;6.60;;;;;;;1.34;70.15;98720.16;24581;1324;3052305;-68
2022/11/18 11:15:22;;;;;;;10.40;6.70;;;;;;;1.40;70.45;98721.67;24588;1340;3052305;-68
2022/11/18 11:20:46;;;;;;;13.00;7.70;;;;;;;1.47;70.66;98732.98;24560;1332;3070104;-68
2022/11/18 11:23:15;;;;;;;13.40;7.50;;;;;;;1.62;69.97;98735.23;24529;1331;3028298;-66
2022/11/18 11:25:53;;;;;;;10.40;6.80;;;;;;;1.38;69.93;98736.59;24509;1331;3029582;-68
2022/11/18 11:28:31;;;;;;;14.70;7.10;;;;;;;1.38;70.46;98745.75;24668;1338;3052410;-69
2022/11/18 11:31:17;;;;;;;11.00;6.40;;;;;;;1.38;70.84;98743.64;24532;1323;3053456;-66
2022/11/18 11:33:56;;;;;;;12.00;6.70;;;;;;;1.48;70.61;98747.60;24497;1334;3053761;-65
2022/11/18 11:36:43;;;;;;;14.00;6.40;;;;;;;1.49;70.98;98755.68;24556;1331;3052690;-67
2022/11/18 11:39:44;;;;;;;14.50;8.10;;;;;;;1.50;70.86;98751.36;24549;1323;3049792;-66
2022/11/18 11:42:28;;;;;;;12.10;7.00;;;;;;;1.58;70.97;98750.55;24517;1323;3067583;-65
2022/11/18 11:45:04;;;;;;;14.60;8.40;;;;;;;1.65;71.32;98752.52;24534;1330;3050443;-65
2022/11/18 11:47:48;;;;;;;13.90;8.40;;;;;;;1.75;70.94;98759.61;24522;1332;3057721;-64
2022/11/18 11:50:17;;;;;;;16.70;7.90;;;;;;;1.70;71.19;98772.23;24502;1333;3052009;-64
2022/11/18 11:53:04;;;;;;;14.10;7.50;;;;;;;1.82;70.62;98773.00;24545;1324;3026583;-63
2022/11/18 11:55:55;;;;;;;14.00;8.10;;;;;;;1.84;70.28;98775.02;24598;1324;3056977;-66
2022/11/18 11:59:00;;;;;;;11.20;6.70;;;;;;;1.90;70.24;98784.65;24605;1323;3053000;-64
2022/11/18 12:01:41;;;;;;;13.30;7.60;;;;;;;1.68;69.92;98787.65;24551;1326;3054256;-66
2022/11/18 12:04:25;;;;;;;14.10;7.90;;;;;;;1.62;70.01;98795.45;24568;1331;3051868;-70
2022/11/18 12:06:54;;;;;;;17.00;9.20;;;;;;;1.58;70.81;98801.48;24566;1332;3053066;-67
2022/11/18 12:09:32;;;;;;;12.70;7.80;;;;;;;1.60;71.37;98808.83;24577;1325;3026554;-67
2022/11/18 12:12:33;;;;;;;12.20;7.60;;;;;;;1.80;70.70;98808.64;24568;1330;3052114;-65